Coker Creek, Tennessee
Current Conditions -  °F | °C
As of 2:35 PM on Thursday 23 Oct 2014 (Local Time) from KMMI Reporting Station
Clear Clear  
Wind Chill: 63°   Ceiling: Unl
Heat Index: 63°   Visibility: 10mi
Dew Point: 41°   Wind: 6mph
Humidity: 45%   Direction: 30°NNE
Pressure: 30.13"   Gusts: NA
Location:  35.2658°N, 84.2859°W
Report Text: KMMI 231835Z AUTO 03005KT 10SM CLR 17/05 A3013 RMK
Loading
Personal Weather Stations






























Interactive Weather Map
Tropical Storm Tracking
New forecast layout! Learn more

10-Day Weather Forecast

Advertisements
Track Severe Weather on mobile